createdAt,value
2022-12-08T00:01:45.814Z,81.93
2022-12-08T00:04:14.140Z,80.60
2022-12-08T00:07:02.501Z,81.53
2022-12-08T00:09:38.262Z,82.30
2022-12-08T00:12:09.069Z,85.50
2022-12-08T00:14:39.386Z,84.27
2022-12-08T00:17:09.790Z,85.63
2022-12-08T00:19:40.087Z,83.97
2022-12-08T00:22:12.190Z,86.27
2022-12-08T00:24:41.611Z,87.50
2022-12-08T00:27:10.657Z,89.20
2022-12-08T00:29:39.297Z,87.33
2022-12-08T00:32:07.857Z,86.07
2022-12-08T00:34:36.120Z,85.00
2022-12-08T00:37:04.210Z,86.00
2022-12-08T00:39:33.732Z,85.57
2022-12-08T00:42:13.607Z,86.20
2022-12-08T00:44:42.153Z,86.20
2022-12-08T00:47:10.682Z,83.80
2022-12-08T00:49:38.873Z,86.93
2022-12-08T00:52:07.561Z,86.13
2022-12-08T00:54:37.061Z,87.30
2022-12-08T00:57:05.338Z,86.87
2022-12-08T00:59:33.461Z,91.60
2022-12-08T01:02:01.570Z,92.43
2022-12-08T01:04:29.702Z,91.40
2022-12-08T01:06:57.731Z,92.47
2022-12-08T01:09:25.811Z,92.40
2022-12-08T01:11:55.225Z,91.00
2022-12-08T01:14:23.656Z,89.20
2022-12-08T01:16:51.925Z,90.43
2022-12-08T01:19:20.225Z,90.43
2022-12-08T01:21:48.442Z,89.63
2022-12-08T01:24:18.547Z,92.67
2022-12-08T01:26:47.114Z,93.00
2022-12-08T01:29:17.011Z,90.27
2022-12-08T01:31:45.301Z,86.10
2022-12-08T01:34:13.668Z,85.77
2022-12-08T01:36:42.220Z,87.07
2022-12-08T01:39:15.258Z,88.93
2022-12-08T01:41:44.956Z,87.93
2022-12-08T01:44:50.369Z,88.37
2022-12-08T01:47:20.026Z,89.73
2022-12-08T01:49:48.672Z,91.80
2022-12-08T01:52:20.895Z,89.20
2022-12-08T01:54:57.125Z,89.83
2022-12-08T01:57:28.529Z,94.77
2022-12-08T02:00:02.755Z,92.63
2022-12-08T02:02:37.822Z,89.07
2022-12-08T02:05:07.939Z,86.60
2022-12-08T02:07:37.336Z,88.83
2022-12-08T02:10:06.976Z,90.73
2022-12-08T02:12:35.268Z,89.93
2022-12-08T02:15:05.714Z,92.70
2022-12-08T02:17:48.524Z,91.20
2022-12-08T02:20:31.514Z,93.50
2022-12-08T02:23:08.939Z,92.53
2022-12-08T02:25:45.409Z,93.07
2022-12-08T02:28:39.144Z,91.87
2022-12-08T02:31:16.724Z,90.30
2022-12-08T02:34:10.964Z,90.93
2022-12-08T02:36:48.036Z,90.10
2022-12-08T02:39:26.885Z,86.23
2022-12-08T02:42:03.344Z,88.60
2022-12-08T02:44:35.277Z,90.30
2022-12-08T02:47:09.088Z,91.37
2022-12-08T02:49:38.644Z,89.97
2022-12-08T02:52:08.529Z,91.17
2022-12-08T02:54:37.764Z,92.47
2022-12-08T02:57:23.220Z,89.43
2022-12-08T03:00:04.084Z,89.07
2022-12-08T03:02:51.222Z,88.40
2022-12-08T03:05:32.809Z,87.87
2022-12-08T03:08:08.166Z,87.20
2022-12-08T03:10:41.885Z,90.80
2022-12-08T03:13:13.973Z,91.20
2022-12-08T03:15:44.231Z,90.50
2022-12-08T03:18:15.987Z,90.10
2022-12-08T03:20:47.023Z,89.63
2022-12-08T03:23:18.268Z,90.23
2022-12-08T03:25:53.526Z,89.33
2022-12-08T03:28:21.826Z,87.07
2022-12-08T03:30:53.451Z,86.27
2022-12-08T03:33:26.524Z,86.33
2022-12-08T03:35:56.716Z,84.70
2022-12-08T03:38:24.834Z,86.70
2022-12-08T03:41:06.870Z,86.87
2022-12-08T03:43:34.994Z,85.43
2022-12-08T03:46:03.211Z,87.83
2022-12-08T03:48:31.373Z,90.13
2022-12-08T03:51:00.791Z,88.20
2022-12-08T03:53:28.820Z,87.17
2022-12-08T03:55:56.885Z,88.53
2022-12-08T03:58:24.957Z,88.23
2022-12-08T04:00:53.075Z,89.87
2022-12-08T04:03:21.223Z,88.97
2022-12-08T04:05:49.269Z,88.20
2022-12-08T04:08:18.585Z,85.10
2022-12-08T04:10:46.725Z,87.20
2022-12-08T04:13:14.847Z,85.83
2022-12-08T04:15:46.662Z,84.77
2022-12-08T04:18:15.368Z,83.97
2022-12-08T04:20:45.376Z,84.67
2022-12-08T04:23:13.664Z,85.07
2022-12-08T04:25:43.335Z,86.27
2022-12-08T04:28:11.552Z,84.53
2022-12-08T04:30:39.899Z,85.30
2022-12-08T04:33:07.977Z,84.47
2022-12-08T04:35:36.126Z,85.27
2022-12-08T04:38:04.247Z,84.53
2022-12-08T04:40:33.559Z,83.87
2022-12-08T04:43:02.992Z,83.20
2022-12-08T04:45:31.238Z,82.90
2022-12-08T04:47:59.678Z,81.37
2022-12-08T04:50:28.450Z,82.73
2022-12-08T04:52:56.605Z,83.90
2022-12-08T04:55:24.643Z,84.43
2022-12-08T04:57:52.819Z,86.67
2022-12-08T05:00:22.493Z,83.43
2022-12-08T05:02:50.644Z,81.07
2022-12-08T05:05:18.896Z,75.50
2022-12-08T05:07:46.861Z,78.30
2022-12-08T05:10:14.978Z,77.93
2022-12-08T05:12:43.164Z,82.40
2022-12-08T05:15:11.462Z,77.00
2022-12-08T05:17:40.926Z,76.67
2022-12-08T05:20:10.267Z,76.67
2022-12-08T05:22:38.435Z,80.40
2022-12-08T05:25:07.163Z,79.70
2022-12-08T05:27:35.224Z,81.77
2022-12-08T05:30:03.688Z,76.73
2022-12-08T05:32:31.859Z,78.77
2022-12-08T05:35:01.309Z,80.30
2022-12-08T05:37:29.374Z,79.87
2022-12-08T05:39:57.468Z,79.80
2022-12-08T05:42:25.607Z,81.17
2022-12-08T05:44:53.704Z,78.60
2022-12-08T05:47:21.998Z,80.77
2022-12-08T05:49:50.359Z,77.40
2022-12-08T05:52:19.806Z,80.67
2022-12-08T05:54:47.876Z,79.90
2022-12-08T05:57:15.972Z,77.90
2022-12-08T05:59:44.323Z,81.97
2022-12-08T06:02:12.679Z,80.97
2022-12-08T06:04:41.287Z,79.67
2022-12-08T06:07:15.812Z,79.27
2022-12-08T06:09:45.708Z,79.63
2022-12-08T06:12:13.893Z,78.60
2022-12-08T06:14:42.067Z,75.93
2022-12-08T06:17:10.264Z,77.77
2022-12-08T06:19:38.363Z,78.30
2022-12-08T06:22:06.621Z,76.17
2022-12-08T06:24:34.646Z,73.90
2022-12-08T06:27:04.095Z,73.33
2022-12-08T06:29:32.194Z,71.40
2022-12-08T06:32:00.347Z,72.63
2022-12-08T06:34:28.598Z,72.20
2022-12-08T06:36:56.712Z,73.53
2022-12-08T06:39:24.834Z,72.40
2022-12-08T06:42:11.289Z,76.47
2022-12-08T06:44:41.417Z,74.73
2022-12-08T06:47:09.481Z,74.90
2022-12-08T06:49:37.528Z,71.57
2022-12-08T06:52:05.914Z,72.60
2022-12-08T06:54:34.096Z,73.27
2022-12-08T06:57:02.178Z,72.30
2022-12-08T06:59:30.319Z,69.80
2022-12-08T07:01:59.797Z,74.22
2022-12-08T07:04:28.059Z,73.30
2022-12-08T07:06:56.072Z,71.50
2022-12-08T07:09:24.247Z,76.30
2022-12-08T07:11:52.336Z,74.03
2022-12-08T07:14:23.646Z,72.40
2022-12-08T07:16:51.888Z,71.13
2022-12-08T07:19:21.257Z,74.80
2022-12-08T07:21:49.587Z,73.83
2022-12-08T07:24:17.724Z,75.23
2022-12-08T07:26:45.865Z,74.57
2022-12-08T07:29:14.143Z,73.10
2022-12-08T07:31:42.751Z,72.57
2022-12-08T07:34:12.977Z,71.37
2022-12-08T07:36:42.583Z,71.50
2022-12-08T07:39:10.906Z,73.17
2022-12-08T07:41:39.082Z,68.80
2022-12-08T07:44:07.284Z,68.60
2022-12-08T07:46:35.442Z,68.03
2022-12-08T07:49:03.659Z,68.40
2022-12-08T07:51:31.750Z,67.13
2022-12-08T07:54:01.173Z,68.50
2022-12-08T07:56:29.212Z,66.60
2022-12-08T07:58:57.331Z,67.10
2022-12-08T08:01:28.342Z,69.03
2022-12-08T08:03:57.967Z,66.60
2022-12-08T08:06:26.175Z,66.50
2022-12-08T08:08:54.546Z,64.40
2022-12-08T08:11:24.400Z,70.20
2022-12-08T08:13:53.259Z,68.53
2022-12-08T08:16:22.404Z,69.10
2022-12-08T08:18:51.322Z,73.20
2022-12-08T08:21:44.430Z,71.50
2022-12-08T08:24:10.143Z,76.50
2022-12-08T08:26:39.616Z,76.23
2022-12-08T08:29:07.729Z,73.77
2022-12-08T08:31:35.865Z,73.97
2022-12-08T08:34:06.468Z,76.13
2022-12-08T08:36:34.893Z,74.83
2022-12-08T08:39:03.189Z,76.47
2022-12-08T08:41:31.316Z,77.07
2022-12-08T08:44:00.852Z,81.67
2022-12-08T08:46:29.160Z,79.30
2022-12-08T08:48:58.136Z,81.57
2022-12-08T08:51:26.277Z,80.00
2022-12-08T08:53:54.397Z,82.90
2022-12-08T08:56:22.465Z,78.70
2022-12-08T08:58:51.311Z,80.63
2022-12-08T09:01:22.526Z,83.50
2022-12-08T09:03:50.978Z,79.80
2022-12-08T09:06:19.330Z,78.83
2022-12-08T09:08:48.356Z,78.50
2022-12-08T09:11:18.659Z,78.43
2022-12-08T09:13:49.328Z,80.97
2022-12-08T09:16:18.767Z,78.10
2022-12-08T09:18:49.382Z,79.80
2022-12-08T09:21:22.348Z,80.90
2022-12-08T09:23:51.040Z,81.50
2022-12-08T09:26:22.493Z,82.93
2022-12-08T09:28:51.082Z,83.37
2022-12-08T09:31:20.277Z,83.10
2022-12-08T09:33:51.629Z,81.13
2022-12-08T09:36:20.280Z,85.57
2022-12-08T09:38:49.193Z,84.40
2022-12-08T09:41:23.118Z,85.70
2022-12-08T09:44:01.489Z,87.00
2022-12-08T09:46:33.563Z,85.03
2022-12-08T09:49:04.284Z,86.67
2022-12-08T09:51:36.421Z,84.97
2022-12-08T09:54:08.746Z,84.20
2022-12-08T09:56:38.630Z,84.20
2022-12-08T09:59:18.547Z,85.67
2022-12-08T10:01:46.863Z,85.03
2022-12-08T10:04:23.868Z,86.53
2022-12-08T10:07:02.443Z,84.87
2022-12-08T10:09:38.577Z,84.80
2022-12-08T10:12:14.804Z,86.10
2022-12-08T10:14:45.357Z,88.10
2022-12-08T10:17:21.247Z,84.27
2022-12-08T10:19:52.092Z,85.10
2022-12-08T10:22:23.694Z,83.60
2022-12-08T10:25:01.075Z,81.70
2022-12-08T10:27:29.506Z,80.33
2022-12-08T10:29:57.790Z,81.80
2022-12-08T10:32:29.616Z,80.87
2022-12-08T10:35:05.576Z,79.47
2022-12-08T10:37:33.978Z,76.30
2022-12-08T10:40:04.969Z,78.47
2022-12-08T10:42:39.909Z,76.97
2022-12-08T10:45:25.863Z,76.43
2022-12-08T10:48:01.003Z,77.90
2022-12-08T10:50:36.307Z,80.47
2022-12-08T10:53:13.675Z,81.63
2022-12-08T10:55:44.513Z,79.97
2022-12-08T10:58:29.380Z,78.80
2022-12-08T11:01:01.939Z,78.50
2022-12-08T11:03:33.854Z,74.43
2022-12-08T11:06:13.378Z,71.27
2022-12-08T11:08:49.901Z,69.90
2022-12-08T11:11:21.989Z,71.40
2022-12-08T11:13:52.886Z,71.93
2022-12-08T11:16:21.523Z,67.60
2022-12-08T11:18:57.858Z,68.27
2022-12-08T11:21:35.332Z,68.47
2022-12-08T11:24:20.457Z,68.50
2022-12-08T11:26:52.301Z,67.20
2022-12-08T11:29:20.638Z,66.03
2022-12-08T11:31:53.602Z,66.30
2022-12-08T11:34:29.556Z,63.70
2022-12-08T11:36:59.587Z,63.67
2022-12-08T11:39:29.069Z,63.13
2022-12-08T11:41:59.431Z,61.60
2022-12-08T11:44:49.578Z,62.20
2022-12-08T11:47:22.193Z,60.97
2022-12-08T11:49:56.793Z,61.23
2022-12-08T11:52:31.660Z,61.57
2022-12-08T11:55:18.546Z,62.10
2022-12-08T11:57:47.108Z,60.30
2022-12-08T12:00:18.288Z,58.80
2022-12-08T12:02:49.820Z,58.50
2022-12-08T12:06:03.345Z,58.40
2022-12-08T12:08:38.519Z,60.80
2022-12-08T12:11:36.190Z,58.60
2022-12-08T12:14:17.486Z,57.97
2022-12-08T12:17:01.889Z,56.37
2022-12-08T12:19:34.498Z,56.10
2022-12-08T12:22:13.041Z,53.77
2022-12-08T12:24:46.485Z,52.50
2022-12-08T12:27:25.649Z,53.30
2022-12-08T12:29:58.918Z,50.63
2022-12-08T12:32:28.452Z,49.27
2022-12-08T12:34:59.731Z,49.73
2022-12-08T12:37:37.431Z,49.47
2022-12-08T12:40:16.472Z,50.37
2022-12-08T12:42:48.690Z,49.67
2022-12-08T12:45:29.632Z,50.43
2022-12-08T12:48:26.287Z,48.13
2022-12-08T12:50:55.388Z,50.13
2022-12-08T12:53:50.106Z,48.73
2022-12-08T12:56:54.503Z,49.83
2022-12-08T12:59:42.572Z,54.00
2022-12-08T13:02:21.108Z,53.47
2022-12-08T13:04:58.004Z,55.73
2022-12-08T13:07:29.501Z,60.37
2022-12-08T13:10:02.020Z,59.30
2022-12-08T13:12:31.832Z,57.60
2022-12-08T13:15:05.921Z,60.50
2022-12-08T13:17:38.204Z,62.23
2022-12-08T13:20:18.375Z,66.30
2022-12-08T13:23:04.064Z,65.77
2022-12-08T13:26:15.998Z,69.93
2022-12-08T13:29:23.788Z,68.50
2022-12-08T13:31:55.106Z,74.97
2022-12-08T13:34:33.652Z,73.70
2022-12-08T13:37:10.028Z,72.57
2022-12-08T13:39:44.447Z,73.70
2022-12-08T13:42:22.219Z,75.47
2022-12-08T13:45:21.496Z,71.90
2022-12-08T13:51:23.937Z,74.33
2022-12-08T13:59:30.492Z,76.27
2022-12-08T14:02:02.236Z,71.57
2022-12-08T14:04:54.640Z,71.30
2022-12-08T14:07:20.642Z,65.90
2022-12-08T14:09:49.379Z,64.80
2022-12-08T14:12:21.293Z,62.13
2022-12-08T14:15:03.168Z,64.30
2022-12-08T14:17:32.832Z,62.73
2022-12-08T14:20:04.655Z,62.13
2022-12-08T14:22:37.699Z,60.83
2022-12-08T14:25:07.725Z,62.80
2022-12-08T14:27:38.747Z,62.67
2022-12-08T14:30:08.696Z,63.20
2022-12-08T14:32:41.015Z,64.27
2022-12-08T14:35:23.196Z,64.70
2022-12-08T14:37:54.120Z,66.07
2022-12-08T14:40:24.420Z,65.60
2022-12-08T14:42:54.507Z,67.17
2022-12-08T14:45:22.983Z,67.87
2022-12-08T14:47:52.285Z,69.03
2022-12-08T14:50:42.570Z,67.40
2022-12-08T14:53:19.149Z,68.23
2022-12-08T14:55:49.496Z,68.67
2022-12-08T14:58:24.671Z,68.80
2022-12-08T15:00:56.825Z,66.30
2022-12-08T15:03:27.975Z,67.00
2022-12-08T15:06:00.496Z,68.90
2022-12-08T15:08:28.666Z,74.67
2022-12-08T15:11:30.781Z,72.63
2022-12-08T15:13:59.160Z,75.50
2022-12-08T15:16:30.223Z,75.83
2022-12-08T15:19:18.731Z,76.07
2022-12-08T15:21:48.591Z,77.43
2022-12-08T15:24:17.816Z,75.40
2022-12-08T15:26:48.171Z,73.90
2022-12-08T15:29:21.635Z,72.17
2022-12-08T15:31:49.973Z,73.67
2022-12-08T15:34:18.145Z,74.10
2022-12-08T15:36:46.393Z,75.07
2022-12-08T15:39:27.335Z,76.87
2022-12-08T15:41:55.404Z,77.80
2022-12-08T15:44:23.990Z,75.10
2022-12-08T15:46:52.259Z,73.30
2022-12-08T15:49:23.031Z,74.30
2022-12-08T15:51:55.691Z,72.43
2022-12-08T15:54:30.148Z,73.73
2022-12-08T15:59:47.790Z,73.57
2022-12-08T16:02:22.238Z,72.33
2022-12-08T16:07:39.509Z,69.50
2022-12-08T16:10:15.977Z,74.80
2022-12-08T16:15:59.312Z,72.20
2022-12-08T16:18:30.051Z,72.10
2022-12-08T16:21:31.706Z,71.30
2022-12-08T16:23:46.682Z,73.00
2022-12-08T16:26:44.396Z,67.53
2022-12-08T16:29:06.583Z,66.13
2022-12-08T16:31:34.826Z,67.80
2022-12-08T16:34:02.980Z,70.03
2022-12-08T16:36:31.007Z,69.37
2022-12-08T16:38:59.160Z,69.57
2022-12-08T16:41:46.116Z,70.40
2022-12-08T16:44:14.171Z,72.23
2022-12-08T16:46:42.241Z,71.77
2022-12-08T16:49:10.635Z,69.17
2022-12-08T16:51:38.732Z,72.13
2022-12-08T16:54:06.826Z,76.03
2022-12-08T16:56:36.289Z,73.40
2022-12-08T16:59:04.423Z,72.40
2022-12-08T17:01:32.694Z,75.17
2022-12-08T17:04:30.465Z,75.90
2022-12-08T17:06:50.909Z,73.97
2022-12-08T17:09:18.949Z,74.97
2022-12-08T17:11:48.381Z,74.23
2022-12-08T17:14:17.343Z,72.10
2022-12-08T17:16:45.891Z,74.27
2022-12-08T17:19:15.348Z,71.07
2022-12-08T17:21:44.475Z,77.33
2022-12-08T17:24:17.104Z,77.40
2022-12-08T17:26:50.035Z,76.23
2022-12-08T17:29:18.762Z,71.63
2022-12-08T17:31:47.009Z,72.97
2022-12-08T17:34:15.213Z,74.63
2022-12-08T17:36:43.446Z,74.30
2022-12-08T17:39:18.281Z,73.73
2022-12-08T17:41:48.676Z,71.20
2022-12-08T17:44:20.430Z,75.53
2022-12-08T17:46:52.824Z,74.93
2022-12-08T17:49:24.431Z,72.40
2022-12-08T17:51:54.525Z,75.53
2022-12-08T17:54:22.658Z,75.17
2022-12-08T17:56:52.232Z,78.00
2022-12-08T17:59:20.830Z,78.77
2022-12-08T18:01:49.022Z,77.40
2022-12-08T18:04:17.078Z,75.70
2022-12-08T18:06:45.137Z,79.27
2022-12-08T18:09:13.844Z,81.10
2022-12-08T18:11:42.490Z,82.70
2022-12-08T18:14:12.927Z,78.27
2022-12-08T18:16:43.468Z,82.90
2022-12-08T18:19:12.442Z,82.97
2022-12-08T18:21:41.680Z,84.90
2022-12-08T18:24:16.460Z,81.67
2022-12-08T18:26:44.471Z,81.30
2022-12-08T18:29:13.962Z,81.23
2022-12-08T18:31:42.097Z,81.17
2022-12-08T18:34:10.691Z,84.70
2022-12-08T18:36:39.321Z,84.17
2022-12-08T18:39:11.037Z,81.40
2022-12-08T18:41:39.600Z,83.80
2022-12-08T18:44:07.497Z,80.90
2022-12-08T18:46:36.984Z,84.60
2022-12-08T18:49:05.086Z,83.87
2022-12-08T18:51:33.236Z,81.90
2022-12-08T18:54:01.351Z,83.73
2022-12-08T18:56:31.244Z,84.40
2022-12-08T18:59:03.714Z,82.10
2022-12-08T19:01:32.687Z,91.97
2022-12-08T19:04:27.470Z,86.43
2022-12-08T19:06:53.404Z,87.30
2022-12-08T19:09:22.735Z,90.10
2022-12-08T19:11:51.215Z,86.93
2022-12-08T19:14:25.786Z,87.63
2022-12-08T19:16:56.411Z,84.53
2022-12-08T19:19:26.442Z,86.30
2022-12-08T19:21:55.310Z,92.72
2022-12-08T19:24:24.057Z,90.23
2022-12-08T19:26:52.614Z,89.47
2022-12-08T19:29:21.439Z,85.87
2022-12-08T19:31:51.000Z,88.50
2022-12-08T19:34:19.806Z,88.87
2022-12-08T19:36:49.950Z,84.90
2022-12-08T19:39:37.827Z,84.00
2022-12-08T19:42:29.465Z,84.53
2022-12-08T19:44:59.268Z,84.03
2022-12-08T19:47:28.357Z,87.23
2022-12-08T19:50:17.684Z,86.27
2022-12-08T19:52:47.291Z,84.13
2022-12-08T19:55:15.603Z,81.20
2022-12-08T19:57:45.803Z,84.33
2022-12-08T20:00:14.591Z,83.83
2022-12-08T20:02:43.025Z,82.73
2022-12-08T20:05:12.305Z,80.40
2022-12-08T20:07:40.949Z,81.90
2022-12-08T20:10:16.317Z,81.60
2022-12-08T20:12:44.709Z,83.57
2022-12-08T20:15:14.644Z,84.87
2022-12-08T20:17:43.545Z,80.10
2022-12-08T20:20:13.562Z,82.63
2022-12-08T20:22:42.059Z,81.40
2022-12-08T20:25:13.223Z,83.03
2022-12-08T20:27:42.513Z,83.63
2022-12-08T20:30:16.710Z,83.30
2022-12-08T20:32:45.332Z,84.47
2022-12-08T20:35:13.490Z,85.10
2022-12-08T20:37:41.622Z,84.73
2022-12-08T20:40:11.981Z,87.63
2022-12-08T20:42:40.200Z,88.20
2022-12-08T20:45:09.783Z,87.70
2022-12-08T20:47:38.677Z,88.53
2022-12-08T20:50:08.124Z,86.67
2022-12-08T20:52:38.360Z,88.47
2022-12-08T20:55:07.898Z,88.90
2022-12-08T20:57:37.489Z,88.50
2022-12-08T21:00:06.977Z,89.87
2022-12-08T21:02:35.954Z,90.13
2022-12-08T21:05:04.827Z,93.93
2022-12-08T21:07:33.712Z,93.77
2022-12-08T21:10:03.758Z,91.87
2022-12-08T21:12:33.417Z,91.20
2022-12-08T21:15:03.043Z,93.40
2022-12-08T21:17:32.312Z,95.53
2022-12-08T21:20:00.644Z,88.77
2022-12-08T21:22:28.887Z,89.90
2022-12-08T21:24:57.254Z,89.57
2022-12-08T21:27:25.456Z,87.90
2022-12-08T21:29:53.549Z,90.90
2022-12-08T21:32:28.636Z,95.00
2022-12-08T21:34:58.399Z,93.50
2022-12-08T21:37:26.747Z,95.20
2022-12-08T21:39:55.004Z,94.80
2022-12-08T21:42:40.638Z,97.77
2022-12-08T21:45:10.333Z,94.50
2022-12-08T21:47:40.274Z,94.67
2022-12-08T21:50:09.942Z,98.73
2022-12-08T21:52:39.717Z,94.93
2022-12-08T21:55:09.440Z,92.93
2022-12-08T21:57:37.712Z,91.17
2022-12-08T22:00:07.970Z,95.90
2022-12-08T22:02:36.578Z,96.23
2022-12-08T22:05:07.255Z,99.03
2022-12-08T22:07:38.200Z,98.03
2022-12-08T22:10:07.759Z,94.23
2022-12-08T22:12:36.488Z,93.57
2022-12-08T22:15:06.620Z,97.50
2022-12-08T22:17:38.058Z,97.10
2022-12-08T22:20:10.603Z,95.87
2022-12-08T22:22:39.238Z,92.93
2022-12-08T22:25:10.981Z,93.00
2022-12-08T22:27:40.064Z,91.37
2022-12-08T22:30:10.135Z,97.00
2022-12-08T22:32:38.699Z,97.30
2022-12-08T22:35:09.183Z,96.47
2022-12-08T22:37:37.488Z,99.57
2022-12-08T22:40:07.533Z,101.90
2022-12-08T22:42:36.156Z,99.63
2022-12-08T22:45:04.564Z,95.83
2022-12-08T22:47:32.751Z,99.03
2022-12-08T22:50:00.980Z,100.30
2022-12-08T22:52:30.577Z,100.87
2022-12-08T22:54:58.695Z,103.10
2022-12-08T22:57:26.957Z,99.97
2022-12-08T22:59:55.044Z,102.77
2022-12-08T23:02:23.144Z,102.70
2022-12-08T23:04:51.427Z,101.17
2022-12-08T23:07:19.623Z,102.60
2022-12-08T23:09:49.109Z,98.60
2022-12-08T23:12:19.227Z,97.07
2022-12-08T23:14:47.457Z,96.73
2022-12-08T23:17:15.820Z,95.83
2022-12-08T23:19:44.092Z,101.03
2022-12-08T23:22:12.248Z,99.40
2022-12-08T23:24:40.510Z,100.70
2022-12-08T23:27:10.202Z,98.83
2022-12-08T23:29:38.870Z,96.47
2022-12-08T23:32:07.511Z,102.40
2022-12-08T23:34:35.975Z,96.10
2022-12-08T23:37:04.117Z,98.50
2022-12-08T23:39:32.553Z,93.97
2022-12-08T23:42:00.646Z,94.63
2022-12-08T23:44:30.134Z,93.17
2022-12-08T23:46:58.701Z,94.93
2022-12-08T23:49:27.016Z,94.63
2022-12-08T23:51:55.219Z,94.20
2022-12-08T23:54:23.875Z,95.77
2022-12-08T23:56:52.173Z,93.37
2022-12-08T23:59:20.415Z,95.90
